Burlington, Vermont
Current Conditions -  °F | °C
As of 11:54 AM on Thursday 27 Nov 2014 (Local Time) from KBTV Reporting Station
Overcast Overcast  
Wind Chill: 22°   Ceiling: 2900
Heat Index: 30°   Visibility: 10mi
Dew Point: 20°   Wind: 8mph
Humidity: 66%   Direction: 30°NNE
Pressure: 30.02"   Gusts: NA
Location:  44.48°N, 73.21°W
Report Text: KBTV 271654Z 03007KT 10SM FEW020 BKN029 OVC037 M01/M07 A3002 RMK AO2 SLP171 T10111067
Loading
Personal Weather Stations






























Interactive Weather Map New forecast layout! Learn more

10-Day Weather Forecast

Advertisements
Track Severe Weather on mobile